Time;durP1;ratioP1;P1;durP2;ratioP2;P2;SDS_P1;SDS_P2;PMS_P1;PMS_P2;Temp;Humidity;BMP_temperature;BMP_pressure;BME280_temperature;BME280_humidity;BME280_pressure;Samples;Min_cycle;Max_cycle;Signal;HPM_P1;HPM_P2
2023/07/17 00:00:45;;;;;;;0.90;0.80;;;;;;;;;;5054425;28;20458;-55
2023/07/17 00:03:11;;;;;;;1.15;1.00;;;;;;;;;;5047373;28;20199;-55
2023/07/17 00:05:37;;;;;;;1.10;1.00;;;;;;;;;;5053973;28;20251;-56
2023/07/17 00:08:03;;;;;;;1.50;1.00;;;;;;;;;;5049992;28;20230;-56
2023/07/17 00:10:29;;;;;;;1.45;1.10;;;;;;;;;;5053845;28;20187;-55
2023/07/17 00:12:55;;;;;;;0.93;0.90;;;;;;;;;;5049676;28;20305;-55
2023/07/17 00:15:21;;;;;;;1.20;1.10;;;;;;;;;;5053785;28;20182;-55
2023/07/17 00:17:47;;;;;;;1.02;1.00;;;;;;;;;;5053836;28;20614;-55
2023/07/17 00:20:13;;;;;;;1.58;0.98;;;;;;;;;;5048851;28;20262;-56
2023/07/17 00:22:39;;;;;;;1.00;1.00;;;;;;;;;;5061409;28;20327;-56
2023/07/17 00:25:05;;;;;;;0.85;0.85;;;;;;;;;;5073851;28;20292;-56
2023/07/17 00:27:31;;;;;;;0.93;0.82;;;;;;;;;;5073997;28;20550;-56
2023/07/17 00:29:57;;;;;;;1.05;1.00;;;;;;;;;;5069306;28;20614;-55
2023/07/17 00:32:23;;;;;;;1.08;0.98;;;;;;;;;;5047184;28;20203;-56
2023/07/17 00:34:49;;;;;;;0.85;0.80;;;;;;;;;;5050660;28;20191;-55
2023/07/17 00:37:15;;;;;;;1.20;1.00;;;;;;;;;;5046941;28;20202;-56
2023/07/17 00:39:41;;;;;;;0.82;0.82;;;;;;;;;;5053190;28;20244;-55
2023/07/17 00:42:07;;;;;;;0.93;0.93;;;;;;;;;;5057766;28;20690;-55
2023/07/17 00:44:35;;;;;;;1.58;1.25;;;;;;;;;;5058225;28;20233;-56
2023/07/17 00:47:02;;;;;;;0.77;0.77;;;;;;;;;;5056819;28;20825;-56
2023/07/17 00:49:29;;;;;;;1.73;1.20;;;;;;;;;;5056374;28;20256;-56
2023/07/17 00:51:56;;;;;;;1.00;0.90;;;;;;;;;;5060744;28;20239;-56
2023/07/17 00:54:22;;;;;;;1.15;1.00;;;;;;;;;;5062410;28;20201;-56
2023/07/17 00:56:48;;;;;;;1.10;1.00;;;;;;;;;;5048313;28;20616;-56
2023/07/17 00:59:15;;;;;;;0.90;0.90;;;;;;;;;;5057282;28;20205;-56
2023/07/17 01:01:41;;;;;;;1.02;1.00;;;;;;;;;;5057859;28;20179;-56
2023/07/17 01:04:08;;;;;;;1.15;1.05;;;;;;;;;;5045914;28;20270;-56
2023/07/17 01:06:38;;;;;;;1.00;0.90;;;;;;;;;;5057038;28;20163;-56
2023/07/17 01:09:04;;;;;;;0.93;0.85;;;;;;;;;;5056668;28;20258;-56
2023/07/17 01:11:31;;;;;;;0.98;0.90;;;;;;;;;;5055870;28;20522;-56
2023/07/17 01:13:57;;;;;;;1.30;1.20;;;;;;;;;;5056754;28;20577;-56
2023/07/17 01:16:23;;;;;;;1.20;1.10;;;;;;;;;;5050731;28;20175;-56
2023/07/17 01:18:49;;;;;;;1.20;1.10;;;;;;;;;;5055968;28;20565;-55
2023/07/17 01:21:18;;;;;;;1.08;0.98;;;;;;;;;;5057365;28;20209;-55
2023/07/17 01:23:46;;;;;;;1.38;1.10;;;;;;;;;;5052031;28;20199;-55
2023/07/17 01:26:16;;;;;;;1.25;1.10;;;;;;;;;;5056351;28;20461;-55
2023/07/17 01:28:43;;;;;;;1.20;1.10;;;;;;;;;;5055948;28;20221;-55
2023/07/17 01:31:10;;;;;;;0.93;0.80;;;;;;;;;;5057203;28;20229;-55
2023/07/17 01:33:36;;;;;;;1.00;0.90;;;;;;;;;;5057211;28;20190;-55
2023/07/17 01:36:02;;;;;;;1.08;0.90;;;;;;;;;;5057025;28;20400;-55
2023/07/17 01:38:28;;;;;;;1.08;1.00;;;;;;;;;;5056182;28;20258;-55
2023/07/17 01:40:54;;;;;;;0.73;0.73;;;;;;;;;;5056833;28;20270;-55
2023/07/17 01:43:20;;;;;;;1.20;1.00;;;;;;;;;;5047195;28;20194;-55
2023/07/17 01:45:46;;;;;;;1.10;1.00;;;;;;;;;;5052666;28;20213;-55
2023/07/17 01:48:14;;;;;;;1.10;0.80;;;;;;;;;;5056497;28;20187;-55
2023/07/17 01:50:40;;;;;;;1.05;0.95;;;;;;;;;;5056381;28;20456;-55
2023/07/17 01:53:06;;;;;;;1.00;1.00;;;;;;;;;;5071474;28;20261;-55
2023/07/17 01:55:32;;;;;;;1.77;1.08;;;;;;;;;;5076415;28;20261;-55
2023/07/17 01:57:58;;;;;;;1.10;0.95;;;;;;;;;;5076435;28;20634;-55
2023/07/17 02:00:24;;;;;;;1.17;1.08;;;;;;;;;;5052533;28;20596;-55
2023/07/17 02:02:50;;;;;;;1.17;0.98;;;;;;;;;;5049104;28;20184;-56
2023/07/17 02:05:17;;;;;;;0.90;0.90;;;;;;;;;;5054011;28;20189;-56
2023/07/17 02:07:43;;;;;;;1.40;1.30;;;;;;;;;;5056758;28;20404;-56
2023/07/17 02:10:09;;;;;;;1.20;1.10;;;;;;;;;;5054331;28;20210;-55
2023/07/17 02:12:35;;;;;;;1.17;1.08;;;;;;;;;;5056459;28;20500;-56
2023/07/17 02:15:01;;;;;;;1.35;1.25;;;;;;;;;;5055592;28;20187;-55
2023/07/17 02:17:27;;;;;;;1.13;1.00;;;;;;;;;;5055165;28;20232;-55
2023/07/17 02:19:53;;;;;;;1.27;1.17;;;;;;;;;;5053078;28;20704;-55
2023/07/17 02:22:19;;;;;;;1.00;0.90;;;;;;;;;;5052805;28;20191;-55
2023/07/17 02:24:45;;;;;;;1.23;0.90;;;;;;;;;;5055221;28;20215;-55
2023/07/17 02:27:11;;;;;;;1.10;1.00;;;;;;;;;;5056083;28;20190;-55
2023/07/17 02:29:37;;;;;;;1.38;0.95;;;;;;;;;;5054821;28;20478;-55
2023/07/17 02:32:03;;;;;;;1.33;0.98;;;;;;;;;;5054515;28;20186;-55
2023/07/17 02:34:29;;;;;;;1.05;0.95;;;;;;;;;;5053780;28;20194;-55
2023/07/17 02:36:55;;;;;;;0.90;0.90;;;;;;;;;;5055797;28;20187;-55
2023/07/17 02:39:20;;;;;;;0.98;0.90;;;;;;;;;;5054736;28;20187;-55
2023/07/17 02:41:47;;;;;;;0.88;0.88;;;;;;;;;;5052494;28;20184;-56
2023/07/17 02:44:13;;;;;;;0.82;0.82;;;;;;;;;;5054848;28;20569;-56
2023/07/17 02:46:39;;;;;;;0.80;0.80;;;;;;;;;;5045884;28;20183;-55
2023/07/17 02:49:07;;;;;;;1.15;0.82;;;;;;;;;;5058362;28;20226;-55
2023/07/17 02:51:33;;;;;;;0.93;0.90;;;;;;;;;;5051040;28;20230;-55
2023/07/17 02:53:59;;;;;;;1.02;0.93;;;;;;;;;;5069712;28;20187;-55
2023/07/17 02:56:24;;;;;;;1.20;1.10;;;;;;;;;;5052823;28;20191;-55
2023/07/17 02:58:54;;;;;;;1.10;1.00;;;;;;;;;;5052527;28;20243;-56
2023/07/17 03:01:20;;;;;;;1.85;0.90;;;;;;;;;;5054092;28;20183;-56
2023/07/17 03:03:46;;;;;;;0.73;0.73;;;;;;;;;;5053712;28;20213;-56
2023/07/17 03:06:12;;;;;;;1.63;1.05;;;;;;;;;;5055155;28;20179;-56
2023/07/17 03:08:38;;;;;;;1.38;0.98;;;;;;;;;;5053922;28;20215;-56
2023/07/17 03:11:04;;;;;;;1.13;1.00;;;;;;;;;;5055378;28;20179;-55
2023/07/17 03:13:30;;;;;;;1.30;0.98;;;;;;;;;;5055210;28;20198;-55
2023/07/17 03:15:58;;;;;;;0.98;0.95;;;;;;;;;;5055058;28;20203;-55
2023/07/17 03:18:24;;;;;;;0.98;0.93;;;;;;;;;;5066697;28;20186;-55
2023/07/17 03:20:50;;;;;;;0.75;0.75;;;;;;;;;;5075222;28;20182;-55
2023/07/17 03:23:16;;;;;;;0.95;0.95;;;;;;;;;;5073650;28;20420;-55
2023/07/17 03:25:42;;;;;;;1.20;1.10;;;;;;;;;;5053418;28;20590;-55
2023/07/17 03:28:08;;;;;;;0.93;0.85;;;;;;;;;;5054650;28;20262;-55
2023/07/17 03:30:34;;;;;;;1.30;1.20;;;;;;;;;;5054263;28;20813;-55
2023/07/17 03:33:00;;;;;;;1.20;1.10;;;;;;;;;;5055072;28;20171;-55
2023/07/17 03:35:26;;;;;;;1.00;1.00;;;;;;;;;;5050671;28;20179;-55
2023/07/17 03:37:52;;;;;;;1.23;1.08;;;;;;;;;;5054239;28;20179;-55
2023/07/17 03:40:18;;;;;;;0.90;0.90;;;;;;;;;;5052234;28;20187;-55
2023/07/17 03:42:43;;;;;;;0.95;0.90;;;;;;;;;;5043702;28;20207;-55
2023/07/17 03:45:10;;;;;;;1.13;1.00;;;;;;;;;;5052175;28;20214;-55
2023/07/17 03:47:36;;;;;;;0.85;0.85;;;;;;;;;;5054099;28;20240;-55
2023/07/17 03:50:02;;;;;;;1.20;1.10;;;;;;;;;;5053372;28;20211;-55
2023/07/17 03:52:28;;;;;;;0.88;0.88;;;;;;;;;;5064704;28;20217;-55
2023/07/17 03:54:54;;;;;;;1.15;0.90;;;;;;;;;;5057007;28;20210;-55
2023/07/17 03:57:21;;;;;;;1.20;1.10;;;;;;;;;;5053257;28;20250;-56
2023/07/17 03:59:50;;;;;;;1.05;0.93;;;;;;;;;;5048815;28;20186;-56
2023/07/17 04:02:16;;;;;;;0.85;0.85;;;;;;;;;;5044563;28;20187;-56
2023/07/17 04:04:42;;;;;;;1.67;1.10;;;;;;;;;;5050483;28;20738;-56
2023/07/17 04:07:08;;;;;;;1.08;1.00;;;;;;;;;;5046916;28;20198;-56
2023/07/17 04:09:33;;;;;;;0.80;0.80;;;;;;;;;;5049489;28;20583;-56
2023/07/17 04:11:59;;;;;;;0.95;0.88;;;;;;;;;;5054246;28;20175;-55
2023/07/17 04:14:25;;;;;;;1.63;1.17;;;;;;;;;;5049190;28;20171;-55
2023/07/17 04:16:51;;;;;;;1.17;1.10;;;;;;;;;;5048109;28;20179;-56
2023/07/17 04:19:17;;;;;;;1.02;0.98;;;;;;;;;;5053005;28;20179;-56
2023/07/17 04:21:43;;;;;;;0.85;0.82;;;;;;;;;;5058061;28;20261;-56
2023/07/17 04:24:09;;;;;;;1.20;1.10;;;;;;;;;;5064328;28;20233;-56
2023/07/17 04:26:35;;;;;;;1.17;1.08;;;;;;;;;;5042297;28;20688;-56
2023/07/17 04:29:01;;;;;;;1.25;1.10;;;;;;;;;;5052739;28;20305;-56
2023/07/17 04:31:27;;;;;;;1.20;1.10;;;;;;;;;;5048892;28;20253;-56
2023/07/17 04:33:53;;;;;;;1.48;1.15;;;;;;;;;;5054249;28;20279;-56
2023/07/17 04:36:18;;;;;;;0.95;0.90;;;;;;;;;;5053905;28;20542;-56
2023/07/17 04:38:44;;;;;;;1.20;1.10;;;;;;;;;;5053234;28;20774;-56
2023/07/17 04:41:10;;;;;;;1.00;1.00;;;;;;;;;;5054023;28;20179;-56
2023/07/17 04:43:36;;;;;;;1.10;1.00;;;;;;;;;;5052076;28;20187;-56
2023/07/17 04:46:03;;;;;;;1.15;1.10;;;;;;;;;;5051593;28;20183;-56
2023/07/17 04:48:29;;;;;;;0.80;0.80;;;;;;;;;;5052447;28;20179;-56
2023/07/17 04:50:54;;;;;;;0.95;0.90;;;;;;;;;;5054083;28;20175;-55
2023/07/17 04:53:20;;;;;;;1.88;1.30;;;;;;;;;;5070469;28;20262;-55
2023/07/17 04:55:48;;;;;;;0.70;0.70;;;;;;;;;;5073840;28;20185;-55
2023/07/17 04:58:14;;;;;;;1.17;1.00;;;;;;;;;;5062173;28;20172;-55
2023/07/17 05:00:40;;;;;;;0.80;0.80;;;;;;;;;;5053382;28;20293;-55
2023/07/17 05:03:06;;;;;;;1.20;1.10;;;;;;;;;;5046859;28;20738;-56
2023/07/17 05:05:32;;;;;;;2.30;1.02;;;;;;;;;;5056032;28;20561;-56
2023/07/17 05:07:58;;;;;;;0.85;0.85;;;;;;;;;;5051479;28;20175;-56
2023/07/17 05:10:24;;;;;;;1.30;1.20;;;;;;;;;;5063950;28;20209;-56
2023/07/17 05:12:50;;;;;;;1.38;1.10;;;;;;;;;;5073947;28;20175;-56
2023/07/17 05:15:16;;;;;;;0.80;0.80;;;;;;;;;;5073656;28;20189;-56
2023/07/17 05:17:42;;;;;;;1.00;0.98;;;;;;;;;;5073607;28;20549;-56
2023/07/17 05:20:09;;;;;;;0.98;0.93;;;;;;;;;;5073173;28;20264;-56
2023/07/17 05:22:35;;;;;;;0.85;0.85;;;;;;;;;;5064038;28;20179;-56
2023/07/17 05:25:01;;;;;;;1.10;1.00;;;;;;;;;;5057467;28;20228;-55
2023/07/17 05:27:27;;;;;;;1.38;1.27;;;;;;;;;;5054964;28;20183;-56
2023/07/17 05:29:53;;;;;;;1.10;1.00;;;;;;;;;;5056303;28;20203;-56
2023/07/17 05:32:19;;;;;;;0.90;0.90;;;;;;;;;;5057268;28;20203;-56
2023/07/17 05:34:45;;;;;;;1.02;1.00;;;;;;;;;;5056929;28;20199;-56
2023/07/17 05:37:11;;;;;;;1.65;1.00;;;;;;;;;;5056039;28;20178;-55
2023/07/17 05:39:37;;;;;;;1.20;1.10;;;;;;;;;;5053959;28;20206;-55
2023/07/17 05:42:03;;;;;;;1.55;1.33;;;;;;;;;;5057082;28;20458;-55
2023/07/17 05:44:29;;;;;;;1.40;1.10;;;;;;;;;;5056978;28;20225;-55
2023/07/17 05:46:55;;;;;;;1.75;1.40;;;;;;;;;;5056782;28;20206;-55
2023/07/17 05:49:21;;;;;;;1.10;1.00;;;;;;;;;;5055832;28;20262;-55
2023/07/17 05:51:47;;;;;;;1.10;1.00;;;;;;;;;;5060960;28;20291;-56
2023/07/17 05:54:13;;;;;;;0.95;0.95;;;;;;;;;;5047858;28;20203;-56
2023/07/17 05:56:40;;;;;;;0.98;0.98;;;;;;;;;;5056442;28;20186;-55
2023/07/17 05:59:05;;;;;;;1.20;1.10;;;;;;;;;;5055781;28;20190;-55
2023/07/17 06:01:31;;;;;;;1.00;0.90;;;;;;;;;;5050890;28;20183;-55
2023/07/17 06:03:57;;;;;;;1.00;1.00;;;;;;;;;;5053263;28;20495;-55
2023/07/17 06:06:23;;;;;;;1.20;0.82;;;;;;;;;;5054225;28;20518;-55
2023/07/17 06:08:49;;;;;;;0.85;0.85;;;;;;;;;;5053158;28;20300;-56
2023/07/17 06:11:15;;;;;;;1.10;0.98;;;;;;;;;;5053257;28;20171;-56
2023/07/17 06:13:41;;;;;;;1.35;1.17;;;;;;;;;;5054934;28;20203;-55
2023/07/17 06:16:07;;;;;;;1.20;1.10;;;;;;;;;;5054718;28;20222;-55
2023/07/17 06:18:33;;;;;;;1.30;1.20;;;;;;;;;;5053890;28;20194;-55
2023/07/17 06:20:59;;;;;;;1.10;1.00;;;;;;;;;;5054365;28;20182;-55
2023/07/17 06:23:25;;;;;;;1.25;1.15;;;;;;;;;;5059806;28;20290;-55
2023/07/17 06:25:51;;;;;;;1.25;1.15;;;;;;;;;;5054240;28;20297;-55
2023/07/17 06:28:17;;;;;;;1.20;1.15;;;;;;;;;;5055615;28;20458;-55
2023/07/17 06:30:46;;;;;;;1.52;1.10;;;;;;;;;;5053741;28;20559;-55
2023/07/17 06:33:13;;;;;;;0.90;0.90;;;;;;;;;;5053522;28;20569;-56
2023/07/17 06:35:39;;;;;;;1.13;1.02;;;;;;;;;;5056082;28;20194;-56
2023/07/17 06:38:05;;;;;;;1.20;1.10;;;;;;;;;;5041557;28;20172;-56
2023/07/17 06:40:31;;;;;;;1.25;1.10;;;;;;;;;;5051018;28;20180;-56
2023/07/17 06:42:57;;;;;;;1.17;1.08;;;;;;;;;;5055542;28;20258;-56
2023/07/17 06:45:23;;;;;;;1.50;1.35;;;;;;;;;;5048936;28;20225;-56
2023/07/17 06:47:49;;;;;;;0.90;0.90;;;;;;;;;;5048924;28;20198;-56
2023/07/17 06:50:15;;;;;;;1.40;1.27;;;;;;;;;;5053818;28;20248;-56
2023/07/17 06:52:41;;;;;;;1.10;1.00;;;;;;;;;;5062447;28;20197;-56
2023/07/17 06:55:08;;;;;;;1.67;1.10;;;;;;;;;;5051475;28;20175;-55
2023/07/17 06:57:34;;;;;;;1.15;1.02;;;;;;;;;;5053886;28;20419;-56
2023/07/17 07:00:00;;;;;;;1.20;1.10;;;;;;;;;;5052380;28;20217;-56
2023/07/17 07:02:26;;;;;;;1.38;1.27;;;;;;;;;;5051151;28;20226;-55
2023/07/17 07:04:52;;;;;;;1.30;1.20;;;;;;;;;;5055370;28;20274;-56
2023/07/17 07:07:18;;;;;;;1.40;1.17;;;;;;;;;;5052045;28;20427;-56
2023/07/17 07:09:44;;;;;;;1.10;1.00;;;;;;;;;;5054561;28;20207;-56
2023/07/17 07:12:10;;;;;;;1.23;1.08;;;;;;;;;;5051708;28;20187;-56
2023/07/17 07:14:35;;;;;;;1.13;1.02;;;;;;;;;;5055229;28;20179;-56
2023/07/17 07:17:02;;;;;;;1.20;1.10;;;;;;;;;;5054992;28;20540;-56
2023/07/17 07:19:28;;;;;;;1.30;1.20;;;;;;;;;;5072414;28;20198;-56
2023/07/17 07:21:54;;;;;;;1.30;1.20;;;;;;;;;;5075048;28;20187;-56
2023/07/17 07:24:20;;;;;;;1.33;1.23;;;;;;;;;;5072499;28;20267;-56
2023/07/17 07:26:46;;;;;;;1.20;1.10;;;;;;;;;;5068883;28;20210;-56
2023/07/17 07:29:12;;;;;;;1.20;1.10;;;;;;;;;;5054561;28;20199;-56
2023/07/17 07:31:38;;;;;;;1.67;1.50;;;;;;;;;;5054742;28;20179;-56
2023/07/17 07:34:03;;;;;;;1.60;1.20;;;;;;;;;;5055013;28;20431;-56
2023/07/17 07:36:30;;;;;;;1.55;1.38;;;;;;;;;;5054748;28;20189;-56
2023/07/17 07:38:56;;;;;;;1.40;1.30;;;;;;;;;;5053007;28;20300;-56
2023/07/17 07:41:22;;;;;;;1.73;1.38;;;;;;;;;;5051344;28;20533;-56
2023/07/17 07:43:47;;;;;;;1.10;1.00;;;;;;;;;;5050757;28;20258;-56
2023/07/17 07:46:13;;;;;;;1.50;1.30;;;;;;;;;;5053794;28;20225;-56
2023/07/17 07:48:40;;;;;;;1.50;1.35;;;;;;;;;;5046200;28;20287;-56
2023/07/17 07:51:06;;;;;;;2.22;1.30;;;;;;;;;;5049622;28;20187;-56
2023/07/17 07:53:32;;;;;;;1.17;1.08;;;;;;;;;;5072880;28;20175;-56
2023/07/17 07:56:00;;;;;;;1.55;1.45;;;;;;;;;;5051933;28;20262;-56
2023/07/17 07:58:26;;;;;;;2.13;1.40;;;;;;;;;;5052362;28;20561;-56
2023/07/17 08:00:52;;;;;;;1.55;1.20;;;;;;;;;;5050484;28;20228;-56
2023/07/17 08:03:18;;;;;;;1.55;1.20;;;;;;;;;;5051307;28;20191;-56
2023/07/17 08:05:44;;;;;;;1.40;1.30;;;;;;;;;;5054359;28;20179;-56
2023/07/17 08:08:10;;;;;;;0.93;0.93;;;;;;;;;;5050947;28;20183;-56
2023/07/17 08:10:39;;;;;;;1.30;1.20;;;;;;;;;;5045168;28;20203;-55
2023/07/17 08:13:05;;;;;;;1.50;1.30;;;;;;;;;;5052252;28;20175;-55
2023/07/17 08:15:31;;;;;;;1.50;1.40;;;;;;;;;;5063553;28;20183;-55
2023/07/17 08:17:57;;;;;;;1.80;1.48;;;;;;;;;;5055694;28;20233;-55
2023/07/17 08:20:23;;;;;;;1.17;1.08;;;;;;;;;;5052509;28;20179;-55
2023/07/17 08:22:54;;;;;;;1.48;1.17;;;;;;;;;;5049492;28;20175;-56
2023/07/17 08:25:20;;;;;;;1.80;1.20;;;;;;;;;;5053981;28;20219;-56
2023/07/17 08:27:46;;;;;;;1.38;1.27;;;;;;;;;;5051775;28;20183;-56
2023/07/17 08:30:13;;;;;;;2.58;1.42;;;;;;;;;;5048680;28;20205;-55
2023/07/17 08:32:39;;;;;;;1.42;1.27;;;;;;;;;;5050456;28;20508;-55
2023/07/17 08:35:05;;;;;;;1.45;1.30;;;;;;;;;;5051252;28;20224;-57
2023/07/17 08:37:31;;;;;;;1.50;1.40;;;;;;;;;;5050262;28;20176;-56
2023/07/17 08:39:57;;;;;;;1.40;1.30;;;;;;;;;;5051603;28;20191;-56
2023/07/17 08:42:23;;;;;;;1.42;1.33;;;;;;;;;;5053366;28;20243;-56
2023/07/17 08:44:50;;;;;;;1.48;1.38;;;;;;;;;;5053424;28;20618;-56
2023/07/17 08:47:16;;;;;;;1.65;1.20;;;;;;;;;;5053056;28;20726;-56
2023/07/17 08:49:42;;;;;;;1.63;1.52;;;;;;;;;;5049062;28;20477;-56
2023/07/17 08:52:10;;;;;;;1.33;1.23;;;;;;;;;;5054436;28;20182;-56
2023/07/17 08:54:36;;;;;;;1.42;1.33;;;;;;;;;;5063527;28;20191;-56
2023/07/17 08:57:05;;;;;;;1.85;1.50;;;;;;;;;;5046075;28;20179;-56
2023/07/17 08:59:32;;;;;;;2.28;1.50;;;;;;;;;;5045673;28;20199;-56
2023/07/17 09:01:58;;;;;;;1.20;1.13;;;;;;;;;;5051645;28;20183;-56
2023/07/17 09:04:25;;;;;;;2.03;1.20;;;;;;;;;;5057577;28;20198;-57
2023/07/17 09:06:51;;;;;;;2.03;1.58;;;;;;;;;;5053239;28;20183;-56
2023/07/17 09:09:18;;;;;;;2.00;1.38;;;;;;;;;;5051260;28;20218;-56
2023/07/17 09:11:44;;;;;;;1.30;1.20;;;;;;;;;;5057597;28;20229;-56
2023/07/17 09:14:10;;;;;;;1.52;1.40;;;;;;;;;;5056269;28;20179;-57
2023/07/17 09:16:38;;;;;;;2.63;1.58;;;;;;;;;;5057401;28;20261;-56
2023/07/17 09:19:04;;;;;;;1.25;1.15;;;;;;;;;;5061796;28;20458;-56
2023/07/17 09:21:30;;;;;;;2.08;1.25;;;;;;;;;;5077600;28;20187;-56
2023/07/17 09:23:57;;;;;;;1.48;1.38;;;;;;;;;;5060390;28;20195;-56
2023/07/17 09:26:24;;;;;;;2.60;1.50;;;;;;;;;;5057057;28;20199;-56
2023/07/17 09:28:50;;;;;;;1.35;1.25;;;;;;;;;;5056651;28;20308;-57
2023/07/17 09:31:27;;;;;;;1.60;1.50;;;;;;;;;;5057498;28;20496;-57
2023/07/17 09:33:53;;;;;;;1.80;1.50;;;;;;;;;;5056171;28;20257;-56
2023/07/17 09:36:20;;;;;;;1.70;1.60;;;;;;;;;;5056541;28;20566;-55
2023/07/17 09:38:50;;;;;;;2.63;1.83;;;;;;;;;;5053009;28;20209;-55
2023/07/17 09:41:20;;;;;;;2.05;1.58;;;;;;;;;;5056109;28;20197;-56
2023/07/17 09:43:53;;;;;;;1.98;1.50;;;;;;;;;;5056256;28;20195;-56
2023/07/17 09:46:19;;;;;;;1.95;1.42;;;;;;;;;;5056087;28;20186;-56
2023/07/17 09:48:45;;;;;;;2.30;1.50;;;;;;;;;;5051113;28;20485;-56
2023/07/17 09:51:12;;;;;;;2.35;1.50;;;;;;;;;;5051776;28;20509;-55
2023/07/17 09:53:40;;;;;;;3.55;1.70;;;;;;;;;;5061019;28;20194;-56
2023/07/17 09:56:08;;;;;;;2.35;2.10;;;;;;;;;;5054986;28;20179;-55
2023/07/17 09:58:35;;;;;;;1.88;1.73;;;;;;;;;;5052198;28;20187;-55
2023/07/17 10:01:03;;;;;;;2.42;1.70;;;;;;;;;;5056200;28;20601;-55
2023/07/17 10:03:29;;;;;;;2.20;1.80;;;;;;;;;;5049511;28;20589;-56
2023/07/17 10:05:58;;;;;;;1.95;1.60;;;;;;;;;;5049204;28;20421;-55
2023/07/17 10:08:24;;;;;;;2.95;2.05;;;;;;;;;;5053523;28;20210;-55
2023/07/17 10:10:50;;;;;;;2.53;1.90;;;;;;;;;;5053454;28;20226;-55
2023/07/17 10:13:16;;;;;;;2.03;1.70;;;;;;;;;;5051649;28;20175;-55
2023/07/17 10:15:42;;;;;;;3.80;1.95;;;;;;;;;;5055681;28;20304;-55
2023/07/17 10:18:10;;;;;;;2.25;1.67;;;;;;;;;;5049788;28;20530;-55
2023/07/17 10:20:37;;;;;;;2.20;2.00;;;;;;;;;;5051135;28;20191;-55
2023/07/17 10:23:03;;;;;;;2.03;1.75;;;;;;;;;;5054944;28;20253;-55
2023/07/17 10:25:29;;;;;;;2.78;1.67;;;;;;;;;;5055426;28;20740;-56
2023/07/17 10:27:57;;;;;;;1.70;1.60;;;;;;;;;;5054572;28;20475;-56
2023/07/17 10:30:31;;;;;;;2.70;2.17;;;;;;;;;;5050509;28;20224;-57
2023/07/17 10:33:16;;;;;;;2.58;2.13;;;;;;;;;;5053996;28;20273;-57
2023/07/17 10:35:45;;;;;;;2.53;1.98;;;;;;;;;;5055329;28;20621;-57
2023/07/17 10:38:12;;;;;;;3.42;1.70;;;;;;;;;;5053213;28;20180;-57
2023/07/17 10:40:38;;;;;;;2.25;1.67;;;;;;;;;;5052750;28;20567;-57
2023/07/17 10:43:10;;;;;;;1.88;1.70;;;;;;;;;;5054606;28;20175;-56
2023/07/17 10:45:36;;;;;;;1.70;1.60;;;;;;;;;;5054456;28;20213;-56
2023/07/17 10:48:02;;;;;;;1.85;1.75;;;;;;;;;;5053556;28;20187;-56
2023/07/17 10:50:28;;;;;;;2.15;1.80;;;;;;;;;;5053304;28;20214;-57
2023/07/17 10:52:54;;;;;;;2.25;1.70;;;;;;;;;;5055563;28;20240;-56
2023/07/17 10:55:21;;;;;;;2.17;1.98;;;;;;;;;;5054151;28;20750;-56
2023/07/17 10:57:47;;;;;;;2.03;1.85;;;;;;;;;;5054828;28;20182;-56
2023/07/17 11:00:13;;;;;;;2.40;1.77;;;;;;;;;;5048353;28;20705;-57
2023/07/17 11:02:39;;;;;;;4.43;1.55;;;;;;;;;;5049647;28;20184;-57
2023/07/17 11:05:05;;;;;;;5.18;1.95;;;;;;;;;;5041733;28;20179;-57
2023/07/17 11:07:33;;;;;;;3.10;1.73;;;;;;;;;;5052641;28;20237;-56
2023/07/17 11:09:59;;;;;;;3.03;2.45;;;;;;;;;;5054128;28;20217;-56
2023/07/17 11:12:25;;;;;;;3.03;2.00;;;;;;;;;;5047739;28;20183;-56
2023/07/17 11:14:52;;;;;;;2.28;1.92;;;;;;;;;;5047801;28;20245;-56
2023/07/17 11:17:18;;;;;;;3.25;1.98;;;;;;;;;;5055083;28;20468;-57
2023/07/17 11:19:44;;;;;;;1.77;1.63;;;;;;;;;;5053026;28;20266;-57
2023/07/17 11:22:11;;;;;;;3.40;1.80;;;;;;;;;;5062716;28;20175;-57
2023/07/17 11:24:37;;;;;;;1.80;1.60;;;;;;;;;;5073486;28;20194;-57
2023/07/17 11:27:04;;;;;;;1.83;1.73;;;;;;;;;;5074867;28;20264;-57
2023/07/17 11:29:30;;;;;;;2.55;1.70;;;;;;;;;;5074750;28;20210;-57
2023/07/17 11:31:59;;;;;;;2.40;1.85;;;;;;;;;;5075250;28;20174;-57
2023/07/17 11:34:25;;;;;;;2.22;1.80;;;;;;;;;;5075009;28;20553;-57
2023/07/17 11:36:51;;;;;;;1.60;1.50;;;;;;;;;;5047694;28;20188;-57
2023/07/17 11:39:18;;;;;;;2.33;1.80;;;;;;;;;;5049173;28;20205;-57
2023/07/17 11:41:51;;;;;;;1.75;1.60;;;;;;;;;;5051654;28;20186;-57
2023/07/17 11:44:31;;;;;;;2.28;1.98;;;;;;;;;;5053369;28;20498;-57
2023/07/17 11:46:59;;;;;;;2.42;1.77;;;;;;;;;;5054461;28;20573;-57
2023/07/17 11:49:25;;;;;;;2.42;1.63;;;;;;;;;;5051578;28;20515;-56
2023/07/17 11:51:51;;;;;;;2.30;1.70;;;;;;;;;;5057117;28;20187;-57
2023/07/17 11:54:17;;;;;;;3.33;1.83;;;;;;;;;;5047128;28;20179;-57
2023/07/17 11:56:44;;;;;;;2.17;1.75;;;;;;;;;;5054230;28;20240;-57
2023/07/17 11:59:20;;;;;;;1.92;1.67;;;;;;;;;;5054315;28;20296;-57
2023/07/17 12:01:47;;;;;;;2.42;1.88;;;;;;;;;;5054413;28;20460;-57
2023/07/17 12:04:16;;;;;;;2.03;1.80;;;;;;;;;;5045785;28;20202;-57
2023/07/17 12:06:42;;;;;;;2.40;1.80;;;;;;;;;;5053887;28;20198;-57
2023/07/17 12:09:08;;;;;;;2.50;1.67;;;;;;;;;;5053163;28;20195;-56
2023/07/17 12:11:34;;;;;;;2.08;1.67;;;;;;;;;;5050914;28;20296;-56
2023/07/17 12:14:00;;;;;;;1.80;1.70;;;;;;;;;;5053718;28;20262;-56
2023/07/17 12:16:26;;;;;;;3.63;1.58;;;;;;;;;;5054096;28;20286;-57
2023/07/17 12:18:52;;;;;;;1.70;1.52;;;;;;;;;;5052831;28;20270;-57
2023/07/17 12:21:18;;;;;;;2.40;1.70;;;;;;;;;;5046974;28;20179;-57
2023/07/17 12:23:44;;;;;;;1.73;1.63;;;;;;;;;;5061459;28;20637;-57
2023/07/17 12:26:10;;;;;;;2.03;1.60;;;;;;;;;;5045936;28;20302;-57
2023/07/17 12:28:36;;;;;;;1.80;1.70;;;;;;;;;;5048769;28;20266;-57
2023/07/17 12:31:02;;;;;;;1.70;1.60;;;;;;;;;;5043398;28;20250;-57
2023/07/17 12:33:28;;;;;;;3.22;1.33;;;;;;;;;;5046610;28;20215;-57
2023/07/17 12:35:54;;;;;;;1.50;1.40;;;;;;;;;;5047643;28;20175;-57
2023/07/17 12:38:20;;;;;;;1.88;1.65;;;;;;;;;;5047446;28;20261;-56
2023/07/17 12:40:46;;;;;;;4.00;1.63;;;;;;;;;;5047625;28;20179;-56
2023/07/17 12:43:12;;;;;;;2.50;1.70;;;;;;;;;;5051804;28;20228;-57
2023/07/17 12:45:39;;;;;;;1.85;1.75;;;;;;;;;;5058114;28;20187;-57
2023/07/17 12:48:06;;;;;;;1.63;1.50;;;;;;;;;;5053097;28;20574;-57
2023/07/17 12:50:32;;;;;;;1.33;1.23;;;;;;;;;;5057012;28;20552;-57
2023/07/17 12:52:58;;;;;;;1.63;1.30;;;;;;;;;;5062157;28;20207;-57
2023/07/17 12:55:24;;;;;;;1.67;1.50;;;;;;;;;;5051598;28;20619;-57
2023/07/17 12:57:50;;;;;;;2.00;1.58;;;;;;;;;;5056423;28;20183;-57
2023/07/17 13:00:16;;;;;;;1.92;1.50;;;;;;;;;;5050543;28;20270;-57
2023/07/17 13:02:42;;;;;;;1.83;1.67;;;;;;;;;;5057062;28;20194;-57
2023/07/17 13:05:08;;;;;;;2.42;1.50;;;;;;;;;;5053282;28;20208;-57
2023/07/17 13:07:34;;;;;;;1.55;1.42;;;;;;;;;;5057382;28;20574;-58
2023/07/17 13:10:00;;;;;;;1.67;1.50;;;;;;;;;;5057090;28;20207;-57
2023/07/17 13:12:26;;;;;;;2.42;1.40;;;;;;;;;;5056991;28;20171;-57
2023/07/17 13:14:52;;;;;;;1.55;1.45;;;;;;;;;;5057531;28;20221;-57
2023/07/17 13:17:18;;;;;;;2.15;1.70;;;;;;;;;;5051449;28;20273;-57
2023/07/17 13:19:46;;;;;;;1.92;1.50;;;;;;;;;;5053501;28;20631;-57
2023/07/17 13:22:14;;;;;;;1.52;1.42;;;;;;;;;;5058629;28;20445;-57
2023/07/17 13:24:40;;;;;;;2.00;1.70;;;;;;;;;;5057157;28;20205;-57
2023/07/17 13:27:06;;;;;;;2.05;1.80;;;;;;;;;;5057100;28;20435;-56
2023/07/17 13:29:32;;;;;;;1.42;1.33;;;;;;;;;;5056867;28;20211;-57
2023/07/17 13:31:59;;;;;;;1.45;1.35;;;;;;;;;;5056220;28;20190;-56
2023/07/17 13:34:29;;;;;;;2.30;1.50;;;;;;;;;;5055716;28;20187;-56
2023/07/17 13:36:55;;;;;;;2.03;1.40;;;;;;;;;;5044809;28;20180;-56
2023/07/17 13:39:21;;;;;;;1.55;1.40;;;;;;;;;;5050782;28;20225;-56
2023/07/17 13:41:48;;;;;;;1.30;1.20;;;;;;;;;;5050363;28;20253;-56
2023/07/17 13:44:14;;;;;;;1.48;1.38;;;;;;;;;;5055617;28;20187;-57
2023/07/17 13:46:41;;;;;;;1.50;1.40;;;;;;;;;;5051538;28;20357;-57
2023/07/17 13:49:08;;;;;;;1.38;1.27;;;;;;;;;;5049619;28;20252;-57
2023/07/17 13:51:34;;;;;;;1.85;1.60;;;;;;;;;;5057106;28;20233;-57
2023/07/17 13:54:00;;;;;;;1.33;1.23;;;;;;;;;;5063451;28;20183;-57
2023/07/17 13:56:26;;;;;;;1.50;1.40;;;;;;;;;;5050233;28;20258;-57
2023/07/17 13:58:52;;;;;;;1.60;1.50;;;;;;;;;;5047900;28;20191;-57
2023/07/17 14:01:18;;;;;;;1.30;1.20;;;;;;;;;;5067628;28;20186;-57
2023/07/17 14:03:44;;;;;;;1.95;1.73;;;;;;;;;;5057104;28;20186;-57
2023/07/17 14:06:10;;;;;;;1.42;1.13;;;;;;;;;;5053509;28;20554;-56
2023/07/17 14:08:36;;;;;;;1.42;1.33;;;;;;;;;;5055825;28;20183;-57
2023/07/17 14:11:02;;;;;;;1.63;1.50;;;;;;;;;;5055717;28;20234;-57
2023/07/17 14:13:28;;;;;;;1.55;1.40;;;;;;;;;;5053359;28;20187;-57
2023/07/17 14:15:54;;;;;;;1.60;1.50;;;;;;;;;;5048667;28;20187;-57
2023/07/17 14:18:20;;;;;;;1.95;1.50;;;;;;;;;;5055761;28;20190;-56
2023/07/17 14:20:46;;;;;;;1.60;1.40;;;;;;;;;;5055551;28;20191;-56
2023/07/17 14:23:12;;;;;;;1.48;1.38;;;;;;;;;;5057808;28;20210;-57
2023/07/17 14:25:38;;;;;;;1.17;1.08;;;;;;;;;;5051163;28;20206;-57
2023/07/17 14:28:04;;;;;;;1.80;1.55;;;;;;;;;;5051201;28;20188;-57
2023/07/17 14:30:30;;;;;;;1.70;1.58;;;;;;;;;;5050821;28;20273;-57
2023/07/17 14:32:57;;;;;;;1.50;1.40;;;;;;;;;;5051484;28;20190;-57
2023/07/17 14:35:22;;;;;;;1.42;1.33;;;;;;;;;;5055566;28;20183;-57
2023/07/17 14:37:49;;;;;;;1.38;1.27;;;;;;;;;;5050966;28;20193;-56